메인 페이지
METAR-TAF:

METAR-TAF

공항 :

펜서콜라, 플로리다, 미국

위도: 30-21-22N, 경도: 087-19-24W, 고도: 9m

현재 날씨관측

예보는 13분 전, 01:56시(UTC)에 발표되었습니다.
3kt
온도 24°C
습도 94%
기압 1019 hPa
시정: 16.1km
맑음

METAR: KNPA 250156Z 18003KT 10SM CLR 24/23 A3008 RMK AO2 SLP187 T02390228

시각: 21:09 (02:09 UTC)

예보

예보 대상 시간: 24일 23시부터 25일 23시까지 (UTC)
남남서11kt
시정 10km 이상
고도 2500ft 상공 구름 조금
25일 0200시부터 (UTC)
여러 방향의 바람 3kt
시정 10km 이상
고도 2000ft 상공 구름 조금
25일 1200시부터 (UTC)
동남동6kt
시정 10km 이상
고도 2000ft 상공 구름 보통
일시적
25일 14시부터 25일 17시까지 (UTC)
고도 2000ft 상공 구름 많음
25일 1900시부터 (UTC)
12kt
시정: 2515m
고도 2500ft 상공 구름 조금

TAF: KNPA 2423/2523 20011KT 9999 FEW025 QNH3006INS FM250200 VRB03KT 9999 FEW020 QNH3007INS FM251200 11006KT 9999 SCT020 QNH3011INS TEMPO 2514/2517 BKN020 FM251900 18012KT 9999 FEW025 QNH3005INS AUTOMATED SENSOR METWATCH 2503 TIL 2515 T21/2511Z T32/2518Z FN20034

4,000개 이상의 공항 관측 자료 및 예보 (METAR 및 TAF 보고).

지도상에서 검색 가능한 기상관측소가 노란 점과 빨간 점으로 표시되어 있습니다.

기상관측소 명을 보려면 표시 위로 마우스를 이동하세요.

날씨 관측과 예보를 보려면 클릭하세요.

지도 변경 : 확대하려면 엑스 표시가 있는 녹색 버튼, 축소하려면 빼기 표시가 있는 녹색 버튼, 다음 페이지의 지도를 보려면 녹색 화살표를 클릭하세요.


METAR-TAF: